Time;durP1;ratioP1;P1;durP2;ratioP2;P2;SDS_P1;SDS_P2;PMS_P1;PMS_P2;Temp;Humidity;BMP_temperature;BMP_pressure;BME280_temperature;BME280_humidity;BME280_pressure;Samples;Min_cycle;Max_cycle;Signal;HPM_P1;HPM_P2
2021/08/03 00:00:53;;;;;;;7.05;3.35;;;;;;;-140.79;100.00;63287.88;4987222;28;20022;-73
2021/08/03 00:03:29;;;;;;;9.95;3.38;;;;;;;-140.79;100.00;63287.88;4984255;28;20081;-73
2021/08/03 00:05:55;;;;;;;6.53;2.85;;;;;;;-140.79;100.00;63287.88;4971035;28;20080;-73
2021/08/03 00:08:22;;;;;;;6.47;3.08;;;;;;;-140.79;100.00;63287.88;4968586;28;20024;-72
2021/08/03 00:10:49;;;;;;;6.25;3.53;;;;;;;-140.79;100.00;63287.88;4969704;28;20050;-73
2021/08/03 00:13:15;;;;;;;7.68;3.05;;;;;;;-140.79;100.00;63287.88;4969624;28;20030;-73
2021/08/03 00:15:40;;;;;;;6.82;2.88;;;;;;;-140.79;100.00;63287.88;4986846;28;20033;-73
2021/08/03 00:18:06;;;;;;;5.78;2.88;;;;;;;-140.79;100.00;63287.88;4943765;28;20042;-73
2021/08/03 00:20:32;;;;;;;6.13;2.50;;;;;;;-140.79;100.00;63287.88;4949951;28;20026;-73
2021/08/03 00:23:00;;;;;;;7.85;2.60;;;;;;;-140.79;100.00;63287.88;4969018;28;20030;-73
2021/08/03 00:25:26;;;;;;;4.22;2.50;;;;;;;-140.79;100.00;63287.88;4986304;28;20468;-73
2021/08/03 00:27:52;;;;;;;4.95;2.67;;;;;;;-140.79;100.00;63287.88;4986696;28;20492;-73
2021/08/03 00:30:17;;;;;;;4.60;2.42;;;;;;;-140.79;100.00;63287.88;4958704;28;20027;-73
2021/08/03 00:32:43;;;;;;;4.00;2.15;;;;;;;-140.79;100.00;63287.88;4967353;28;20030;-73
2021/08/03 00:35:08;;;;;;;5.10;2.58;;;;;;;-140.79;100.00;63287.88;4965224;28;20046;-73
2021/08/03 00:37:34;;;;;;;6.75;2.47;;;;;;;-140.79;100.00;63287.88;4968116;28;20027;-72
2021/08/03 00:40:00;;;;;;;7.57;2.47;;;;;;;-140.79;100.00;63287.88;4966239;28;20143;-73
2021/08/03 00:42:25;;;;;;;7.10;2.50;;;;;;;-140.79;100.00;63287.88;4965740;28;20023;-73
2021/08/03 00:44:51;;;;;;;6.00;2.45;;;;;;;-140.79;100.00;63287.88;4968050;28;20035;-72
2021/08/03 00:47:17;;;;;;;7.32;2.85;;;;;;;-140.79;100.00;63287.88;4984339;28;20034;-73
2021/08/03 00:49:43;;;;;;;7.22;2.65;;;;;;;-140.79;100.00;63287.88;4985887;28;20477;-72
2021/08/03 00:52:10;;;;;;;6.38;2.67;;;;;;;-140.79;100.00;63287.88;4986612;28;20077;-73
2021/08/03 00:54:35;;;;;;;6.50;2.50;;;;;;;-140.79;100.00;63287.88;4985293;28;20022;-73
2021/08/03 00:57:01;;;;;;;8.23;3.10;;;;;;;-140.79;100.00;63287.88;4968807;28;20030;-73
2021/08/03 00:59:26;;;;;;;6.50;2.95;;;;;;;-140.79;100.00;63287.88;4966823;28;20027;-73
2021/08/03 01:01:52;;;;;;;7.25;2.72;;;;;;;-140.79;100.00;63287.88;4975878;28;20073;-73
2021/08/03 01:04:18;;;;;;;7.18;2.63;;;;;;;-140.79;100.00;63287.88;4986605;28;20042;-73
2021/08/03 01:06:47;;;;;;;4.60;2.80;;;;;;;-140.79;100.00;63287.88;4976509;28;20691;-73
2021/08/03 01:09:22;;;;;;;6.32;2.70;;;;;;;-140.79;100.00;63287.88;4950140;28;20023;-73
2021/08/03 01:11:54;;;;;;;5.78;2.75;;;;;;;-140.79;100.00;63287.88;4948921;28;20133;-75
2021/08/03 01:14:34;;;;;;;6.50;3.08;;;;;;;-140.79;100.00;63287.88;4949702;28;20114;-75
2021/08/03 01:17:29;;;;;;;5.95;2.70;;;;;;;-140.79;100.00;63287.88;4979802;28;20030;-73
2021/08/03 01:20:15;;;;;;;7.45;2.67;;;;;;;-140.79;100.00;63287.88;4936274;28;20073;-73
2021/08/03 01:23:02;;;;;;;5.00;2.60;;;;;;;-140.79;100.00;63287.88;4964100;28;20043;-74
2021/08/03 01:25:33;;;;;;;6.80;2.88;;;;;;;-140.79;100.00;63287.88;4966331;28;20035;-73
2021/08/03 01:28:07;;;;;;;6.93;3.10;;;;;;;-140.79;100.00;63287.88;4966850;28;20023;-74
2021/08/03 01:30:33;;;;;;;5.90;2.75;;;;;;;-140.79;100.00;63287.88;4966851;28;20316;-74
2021/08/03 01:32:59;;;;;;;5.13;2.47;;;;;;;-140.79;100.00;63287.88;4975578;28;20413;-73
2021/08/03 01:35:24;;;;;;;7.28;2.88;;;;;;;-140.79;100.00;63287.88;4968723;28;20053;-74
2021/08/03 01:37:50;;;;;;;5.68;3.03;;;;;;;-140.79;100.00;63287.88;4983647;28;20417;-74
2021/08/03 01:40:15;;;;;;;5.93;2.50;;;;;;;-140.79;100.00;63287.88;4979358;28;20050;-73
2021/08/03 01:42:42;;;;;;;6.07;2.65;;;;;;;-140.79;100.00;63287.88;4949143;28;20038;-73
2021/08/03 01:45:09;;;;;;;7.30;2.60;;;;;;;-140.79;100.00;63287.88;4951200;28;20030;-73
2021/08/03 01:47:35;;;;;;;4.75;2.45;;;;;;;-140.79;100.00;63287.88;4964565;28;20046;-73
2021/08/03 01:50:00;;;;;;;4.55;2.70;;;;;;;-140.79;100.00;63287.88;4965281;28;20034;-72
2021/08/03 01:52:26;;;;;;;5.35;2.30;;;;;;;-140.79;100.00;63287.88;4952034;28;20034;-73
2021/08/03 01:54:52;;;;;;;4.25;2.42;;;;;;;-140.79;100.00;63287.88;4969417;28;20038;-73
2021/08/03 01:57:17;;;;;;;6.03;2.80;;;;;;;-140.79;100.00;63287.88;4953555;28;20089;-73
2021/08/03 01:59:43;;;;;;;6.55;2.72;;;;;;;-140.79;100.00;63287.88;4955202;28;20042;-73
2021/08/03 02:02:09;;;;;;;3.92;2.25;;;;;;;-140.79;100.00;63287.88;4954978;28;20038;-73
2021/08/03 02:04:34;;;;;;;5.53;2.33;;;;;;;-140.79;100.00;63287.88;4953036;28;20086;-73
2021/08/03 02:07:00;;;;;;;4.35;2.80;;;;;;;-140.79;100.00;63287.88;4968106;28;20023;-73
2021/08/03 02:09:25;;;;;;;6.72;2.30;;;;;;;-140.79;100.00;63287.88;4967778;28;20401;-73
2021/08/03 02:11:50;;;;;;;6.20;2.90;;;;;;;-140.79;100.00;63287.88;4952553;28;20026;-74
2021/08/03 02:14:17;;;;;;;4.97;2.40;;;;;;;-140.79;100.00;63287.88;4952453;28;20085;-73
2021/08/03 02:16:42;;;;;;;7.13;3.00;;;;;;;-140.79;100.00;63287.88;4952385;28;20022;-73
2021/08/03 02:19:08;;;;;;;5.75;2.50;;;;;;;-140.79;100.00;63287.88;4949629;28;20034;-73
2021/08/03 02:21:34;;;;;;;7.68;2.90;;;;;;;-140.79;100.00;63287.88;4968854;28;20038;-73
2021/08/03 02:23:59;;;;;;;4.68;2.50;;;;;;;-140.79;100.00;63287.88;4967875;28;20030;-73
2021/08/03 02:26:24;;;;;;;4.47;2.47;;;;;;;-140.79;100.00;63287.88;4950961;28;20035;-73
2021/08/03 02:28:50;;;;;;;5.15;2.60;;;;;;;-140.79;100.00;63287.88;4969429;28;20023;-73
2021/08/03 02:31:27;;;;;;;4.20;2.50;;;;;;;-140.79;100.00;63287.88;4969470;28;20081;-75
2021/08/03 02:33:57;;;;;;;5.97;3.00;;;;;;;-140.79;100.00;63287.88;4969335;28;20030;-72
2021/08/03 02:36:23;;;;;;;7.47;2.88;;;;;;;-140.79;100.00;63287.88;4967180;28;20510;-73
2021/08/03 02:38:50;;;;;;;4.60;2.50;;;;;;;-140.79;100.00;63287.88;4968068;28;20577;-73
2021/08/03 02:41:17;;;;;;;6.20;2.80;;;;;;;-140.79;100.00;63287.88;4950924;28;20034;-73
2021/08/03 02:43:43;;;;;;;5.93;2.97;;;;;;;-140.79;100.00;63287.88;4967070;28;20578;-73
2021/08/03 02:46:11;;;;;;;5.82;2.70;;;;;;;-140.79;100.00;63287.88;4966458;28;20259;-73
2021/08/03 02:48:36;;;;;;;4.40;2.85;;;;;;;-140.79;100.00;63287.88;4968158;28;20049;-75
2021/08/03 02:51:02;;;;;;;4.60;2.90;;;;;;;-140.79;100.00;63287.88;4950845;28;20349;-75
2021/08/03 02:53:43;;;;;;;6.50;3.25;;;;;;;-140.79;100.00;63287.88;4961831;28;20043;-74
2021/08/03 02:56:10;;;;;;;6.90;2.60;;;;;;;-140.79;100.00;63287.88;4968511;28;20034;-74
2021/08/03 02:58:47;;;;;;;5.35;3.17;;;;;;;-140.79;100.00;63287.88;4949964;28;20117;-74
2021/08/03 03:01:12;;;;;;;4.93;2.45;;;;;;;-140.79;100.00;63287.88;4953766;28;20117;-74
2021/08/03 03:03:39;;;;;;;5.53;2.70;;;;;;;-140.79;100.00;63287.88;4968547;28;20065;-74
2021/08/03 03:06:06;;;;;;;7.15;3.15;;;;;;;-140.79;100.00;63287.88;4954964;28;20030;-74
2021/08/03 03:08:31;;;;;;;5.90;2.95;;;;;;;-140.79;100.00;63287.88;4967144;28;20030;-73
2021/08/03 03:10:59;;;;;;;4.80;2.80;;;;;;;-140.79;100.00;63287.88;4948713;28;20042;-74
2021/08/03 03:13:52;;;;;;;7.10;3.10;;;;;;;-140.79;100.00;63287.88;4968035;28;20153;-74
2021/08/03 03:16:18;;;;;;;7.05;3.72;;;;;;;-140.79;100.00;63287.88;4968605;28;20046;-74
2021/08/03 03:18:44;;;;;;;7.43;2.80;;;;;;;-140.79;100.00;63287.88;4952565;28;20030;-74
2021/08/03 03:21:10;;;;;;;6.30;3.30;;;;;;;-140.79;100.00;63287.88;4972271;28;20426;-74
2021/08/03 03:23:35;;;;;;;6.00;3.05;;;;;;;-140.79;100.00;63287.88;4964060;28;20113;-74
2021/08/03 03:26:02;;;;;;;6.40;3.05;;;;;;;-140.79;100.00;63287.88;4962185;28;20777;-75
2021/08/03 03:28:29;;;;;;;5.97;3.10;;;;;;;-140.79;100.00;63287.88;4951770;28;20976;-74
2021/08/03 03:30:55;;;;;;;7.07;3.00;;;;;;;-140.79;100.00;63287.88;4964167;28;20066;-74
2021/08/03 03:33:21;;;;;;;6.45;3.00;;;;;;;-140.79;100.00;63287.88;4947830;28;20042;-74
2021/08/03 03:35:58;;;;;;;7.88;2.88;;;;;;;-140.79;100.00;63287.88;4949473;28;20089;-75
2021/08/03 03:38:26;;;;;;;7.22;3.33;;;;;;;-140.79;100.00;63287.88;4950515;28;20030;-74
2021/08/03 03:40:51;;;;;;;5.43;2.92;;;;;;;-140.79;100.00;63287.88;4961497;28;20129;-74
2021/08/03 03:43:17;;;;;;;6.18;3.30;;;;;;;-140.79;100.00;63287.88;4969047;28;20045;-74
2021/08/03 03:45:57;;;;;;;7.85;3.58;;;;;;;-140.79;100.00;63287.88;4965665;28;20039;-72
2021/08/03 03:48:23;;;;;;;;;;;;;;;-140.79;100.00;63287.88;4957318;28;20041;-74
2021/08/03 03:50:51;;;;;;;5.32;2.78;;;;;;;-140.79;100.00;63287.88;4987833;28;20004;-74
2021/08/03 03:53:21;;;;;;;7.30;2.92;;;;;;;-140.79;100.00;63287.88;4964971;28;20555;-74
2021/08/03 03:55:53;;;;;;;5.53;3.00;;;;;;;-140.79;100.00;63287.88;4967670;28;20026;-74
2021/08/03 03:58:19;;;;;;;7.93;4.13;;;;;;;-140.79;100.00;63287.88;4950287;28;20351;-74
2021/08/03 04:00:44;;;;;;;6.88;3.10;;;;;;;-140.79;100.00;63287.88;4951180;28;20097;-74
2021/08/03 04:03:10;;;;;;;5.63;2.90;;;;;;;-140.79;100.00;63287.88;4950211;28;20122;-74
2021/08/03 04:05:36;;;;;;;5.38;2.95;;;;;;;-140.79;100.00;63287.88;4965417;28;20053;-74
2021/08/03 04:08:02;;;;;;;6.93;3.05;;;;;;;-140.79;100.00;63287.88;4950481;28;20027;-74
2021/08/03 04:10:32;;;;;;;6.13;2.90;;;;;;;-140.79;100.00;63287.88;4967476;28;20635;-73
2021/08/03 04:12:59;;;;;;;7.50;3.20;;;;;;;-140.79;100.00;63287.88;4950167;28;20544;-74
2021/08/03 04:15:24;;;;;;;5.20;3.10;;;;;;;-140.79;100.00;63287.88;4966979;28;20022;-74
2021/08/03 04:17:50;;;;;;;4.65;2.95;;;;;;;-140.79;100.00;63287.88;4969627;28;20026;-74
2021/08/03 04:20:15;;;;;;;4.93;2.72;;;;;;;-140.79;100.00;63287.88;4969707;28;20038;-74
2021/08/03 04:22:40;;;;;;;6.28;2.53;;;;;;;-140.79;100.00;63287.88;4966932;28;20030;-74
2021/08/03 04:25:06;;;;;;;6.38;2.90;;;;;;;-140.79;100.00;63287.88;4981534;28;20053;-74
2021/08/03 04:27:32;;;;;;;6.10;3.25;;;;;;;-140.79;100.00;63287.88;4987048;28;20038;-74
2021/08/03 04:29:57;;;;;;;5.35;3.00;;;;;;;-140.79;100.00;63287.88;4985771;28;20444;-73
2021/08/03 04:32:23;;;;;;;6.40;3.20;;;;;;;-140.79;100.00;63287.88;4986911;28;20362;-74
2021/08/03 04:34:48;;;;;;;8.57;3.17;;;;;;;-140.79;100.00;63287.88;4987161;28;20100;-72
2021/08/03 04:37:14;;;;;;;7.95;3.20;;;;;;;-140.79;100.00;63287.88;4984106;28;20756;-74
2021/08/03 04:39:39;;;;;;;9.82;3.22;;;;;;;-140.79;100.00;63287.88;4980648;28;20038;-73
2021/08/03 04:42:05;;;;;;;7.53;2.78;;;;;;;-140.79;100.00;63287.88;4967140;28;20088;-75
2021/08/03 04:44:30;;;;;;;8.32;2.92;;;;;;;-140.79;100.00;63287.88;4974702;28;20015;-73
2021/08/03 04:46:56;;;;;;;9.23;3.53;;;;;;;-140.79;100.00;63287.88;4967628;28;20029;-75
2021/08/03 04:49:21;;;;;;;6.53;2.97;;;;;;;-140.79;100.00;63287.88;4978421;28;20122;-77
2021/08/03 04:51:47;;;;;;;7.00;2.95;;;;;;;-140.79;100.00;63287.88;4968737;28;20054;-76
2021/08/03 04:54:12;;;;;;;5.45;2.72;;;;;;;-140.79;100.00;63287.88;4973950;28;20030;-73
2021/08/03 04:56:38;;;;;;;8.10;3.13;;;;;;;-140.79;100.00;63287.88;4967944;28;20105;-73
2021/08/03 04:59:03;;;;;;;6.32;3.03;;;;;;;-140.79;100.00;63287.88;4961137;28;20019;-73
2021/08/03 05:01:29;;;;;;;7.35;3.22;;;;;;;-140.79;100.00;63287.88;4976110;28;20053;-74
2021/08/03 05:03:54;;;;;;;5.32;3.30;;;;;;;-140.79;100.00;63287.88;4973431;28;20788;-73
2021/08/03 05:06:19;;;;;;;6.57;3.05;;;;;;;-140.79;100.00;63287.88;4974119;28;20022;-73
2021/08/03 05:09:05;;;;;;;6.43;3.55;;;;;;;-140.79;100.00;63287.88;4974427;28;20073;-73
2021/08/03 05:11:31;;;;;;;8.38;3.13;;;;;;;-140.79;100.00;63287.88;4974570;28;20070;-74
2021/08/03 05:13:56;;;;;;;5.07;3.10;;;;;;;-140.79;100.00;63287.88;4973545;28;20153;-72
2021/08/03 05:16:22;;;;;;;4.82;3.05;;;;;;;-140.79;100.00;63287.88;4975628;28;20050;-74
2021/08/03 05:18:47;;;;;;;7.18;2.80;;;;;;;-140.79;100.00;63287.88;4982134;28;20034;-74
2021/08/03 05:21:12;;;;;;;6.88;3.35;;;;;;;-140.79;100.00;63287.88;4986364;28;20088;-73
2021/08/03 05:23:39;;;;;;;5.78;3.53;;;;;;;-140.79;100.00;63287.88;4996280;28;20034;-74
2021/08/03 05:26:04;;;;;;;7.43;3.10;;;;;;;-140.79;100.00;63287.88;5006031;28;20069;-77
2021/08/03 05:28:29;;;;;;;5.47;2.97;;;;;;;-140.79;100.00;63287.88;4997695;28;20018;-76
2021/08/03 05:30:55;;;;;;;5.50;3.20;;;;;;;-140.79;100.00;63287.88;4994941;28;20066;-79
2021/08/03 05:33:20;;;;;;;5.90;3.05;;;;;;;-140.79;100.00;63287.88;5015357;28;20057;-79
2021/08/03 05:35:46;;;;;;;6.55;3.03;;;;;;;-140.79;100.00;63287.88;5016240;28;20029;-84
2021/08/03 05:38:11;;;;;;;6.03;2.72;;;;;;;-140.79;100.00;63287.88;5013571;28;20026;-81
2021/08/03 05:40:37;;;;;;;6.88;2.70;;;;;;;-140.79;100.00;63287.88;5009399;28;20082;-79
2021/08/03 05:43:02;;;;;;;5.95;2.90;;;;;;;-140.79;100.00;63287.88;5002873;28;20022;-78
2021/08/03 05:45:28;;;;;;;6.07;2.90;;;;;;;-140.79;100.00;63287.88;4996565;28;20033;-79
2021/08/03 05:47:53;;;;;;;6.13;2.92;;;;;;;-140.79;100.00;63287.88;4991276;28;20568;-75
2021/08/03 05:50:19;;;;;;;5.82;2.60;;;;;;;-140.79;100.00;63287.88;4969561;28;20513;-80
2021/08/03 05:52:44;;;;;;;5.90;2.47;;;;;;;-140.79;100.00;63287.88;4967200;28;20026;-80
2021/08/03 05:55:16;;;;;;;6.22;3.10;;;;;;;-140.79;100.00;63287.88;4989350;28;20081;-82
2021/08/03 05:57:41;;;;;;;4.40;2.78;;;;;;;-140.79;100.00;63287.88;4979811;28;20026;-79
2021/08/03 06:00:07;;;;;;;3.83;2.45;;;;;;;-140.79;100.00;63287.88;4964827;28;20054;-74
2021/08/03 06:02:33;;;;;;;5.50;2.95;;;;;;;-140.79;100.00;63287.88;4988022;28;20034;-74
2021/08/03 06:04:59;;;;;;;5.43;2.67;;;;;;;-140.79;100.00;63287.88;4988629;28;20395;-75
2021/08/03 06:07:25;;;;;;;5.72;2.85;;;;;;;-140.79;100.00;63287.88;4976740;28;20377;-74
2021/08/03 06:09:52;;;;;;;5.65;3.05;;;;;;;-140.79;100.00;63287.88;4988794;28;20022;-74
2021/08/03 06:12:18;;;;;;;7.40;3.05;;;;;;;-140.79;100.00;63287.88;4977788;28;20034;-74
2021/08/03 06:14:44;;;;;;;5.22;2.80;;;;;;;-140.79;100.00;63287.88;4964525;28;20451;-73
2021/08/03 06:17:12;;;;;;;6.10;3.28;;;;;;;-140.79;100.00;63287.88;4960925;28;20039;-76
2021/08/03 06:19:42;;;;;;;4.43;2.90;;;;;;;-140.79;100.00;63287.88;4969904;28;20039;-75
2021/08/03 06:22:09;;;;;;;6.22;2.55;;;;;;;-140.79;100.00;63287.88;4971374;28;20034;-75
2021/08/03 06:24:35;;;;;;;6.45;2.70;;;;;;;-140.79;100.00;63287.88;4955346;28;20026;-74
2021/08/03 06:27:00;;;;;;;7.43;3.15;;;;;;;-140.79;100.00;63287.88;4955050;28;20110;-75
2021/08/03 06:29:26;;;;;;;4.82;3.10;;;;;;;-140.79;100.00;63287.88;4954374;28;20365;-74
2021/08/03 06:31:51;;;;;;;4.25;2.67;;;;;;;-140.79;100.00;63287.88;4963160;28;20045;-72
2021/08/03 06:34:16;;;;;;;6.45;2.45;;;;;;;-140.79;100.00;63287.88;4957068;28;20101;-80
2021/08/03 06:36:42;;;;;;;6.18;2.80;;;;;;;-140.79;100.00;63287.88;4973574;28;20509;-80
2021/08/03 06:39:07;;;;;;;5.40;2.58;;;;;;;-140.79;100.00;63287.88;4980317;28;20046;-80
2021/08/03 06:41:54;;;;;;;5.10;2.85;;;;;;;-140.79;100.00;63287.88;4986723;28;20039;-81
2021/08/03 06:44:21;;;;;;;7.47;2.92;;;;;;;-140.79;100.00;63287.88;4970369;28;20030;-80
2021/08/03 06:46:50;;;;;;;3.40;2.55;;;;;;;-140.79;100.00;63287.88;4976349;28;20064;-80
2021/08/03 06:49:15;;;;;;;4.72;2.80;;;;;;;-140.79;100.00;63287.88;4970748;28;20033;-80
2021/08/03 06:51:41;;;;;;;4.50;2.38;;;;;;;-140.79;100.00;63287.88;4955198;28;20034;-80
2021/08/03 06:54:07;;;;;;;3.95;2.72;;;;;;;-140.79;100.00;63287.88;4976256;28;20030;-80
2021/08/03 06:56:35;;;;;;;5.70;2.88;;;;;;;-140.79;100.00;63287.88;4971444;28;20034;-81
2021/08/03 06:59:07;;;;;;;5.13;3.00;;;;;;;-140.79;100.00;63287.88;4990933;28;20026;-81
2021/08/03 07:01:39;;;;;;;6.05;2.92;;;;;;;-140.79;100.00;63287.88;4988724;28;20033;-82
2021/08/03 07:04:04;;;;;;;5.40;3.33;;;;;;;-140.79;100.00;63287.88;4972375;28;20050;-80
2021/08/03 07:06:33;;;;;;;5.97;3.20;;;;;;;-140.79;100.00;63287.88;4989073;28;20323;-79
2021/08/03 07:09:03;;;;;;;5.90;3.15;;;;;;;-140.79;100.00;63287.88;4988813;28;20026;-81
2021/08/03 07:11:29;;;;;;;5.75;3.35;;;;;;;-140.79;100.00;63287.88;4971741;28;20520;-81
2021/08/03 07:13:56;;;;;;;5.70;3.08;;;;;;;-140.79;100.00;63287.88;4974350;28;20007;-81
2021/08/03 07:16:21;;;;;;;6.88;3.35;;;;;;;-140.79;100.00;63287.88;4958419;28;20037;-81
2021/08/03 07:18:47;;;;;;;7.95;3.67;;;;;;;-140.79;100.00;63287.88;4952909;28;20114;-81
2021/08/03 07:21:12;;;;;;;6.82;3.70;;;;;;;-140.79;100.00;63287.88;4951977;28;20483;-81
2021/08/03 07:23:38;;;;;;;5.72;3.50;;;;;;;-140.79;100.00;63287.88;4952978;28;20030;-82
2021/08/03 07:26:03;;;;;;;7.50;3.80;;;;;;;-140.79;100.00;63287.88;4982770;28;20053;-83
2021/08/03 07:28:29;;;;;;;6.82;3.53;;;;;;;-140.79;100.00;63287.88;4968610;28;20109;-79
2021/08/03 07:30:54;;;;;;;7.57;3.80;;;;;;;-140.79;100.00;63287.88;4973833;28;20026;-82
2021/08/03 07:33:20;;;;;;;5.03;3.33;;;;;;;-140.79;100.00;63287.88;4988002;28;20029;-81
2021/08/03 07:35:45;;;;;;;6.50;3.80;;;;;;;-140.79;100.00;63287.88;4949938;28;20479;-80
2021/08/03 07:38:11;;;;;;;6.43;4.05;;;;;;;-140.79;100.00;63287.88;4978530;28;20022;-81
2021/08/03 07:40:36;;;;;;;7.25;3.75;;;;;;;-140.79;100.00;63287.88;4970258;28;20026;-81
2021/08/03 07:43:05;;;;;;;7.65;4.43;;;;;;;-140.79;100.00;63287.88;4986931;28;20104;-81
2021/08/03 07:45:35;;;;;;;6.05;3.78;;;;;;;-140.79;100.00;63287.88;4987622;28;20025;-80
2021/08/03 07:48:00;;;;;;;;;;;;;;;-140.79;100.00;63287.88;4954682;28;20034;-81
2021/08/03 07:50:26;;;;;;;6.93;4.95;;;;;;;-140.79;100.00;63287.88;4987006;28;19921;-76
2021/08/03 07:52:52;;;;;;;7.68;4.75;;;;;;;-140.79;100.00;63287.88;4969705;28;20134;-75
2021/08/03 07:55:17;;;;;;;6.50;4.55;;;;;;;-140.79;100.00;63287.88;4968042;28;20541;-77
2021/08/03 07:57:43;;;;;;;7.82;4.97;;;;;;;-140.79;100.00;63287.88;4967362;28;20031;-79
2021/08/03 08:00:08;;;;;;;7.78;4.82;;;;;;;-140.79;100.00;63287.88;4968226;28;20083;-78
2021/08/03 08:02:34;;;;;;;9.95;5.30;;;;;;;-140.79;100.00;63287.88;4980269;28;20050;-82
2021/08/03 08:04:59;;;;;;;7.97;5.05;;;;;;;-140.79;100.00;63287.88;4968939;28;20026;-79
2021/08/03 08:07:26;;;;;;;7.18;5.20;;;;;;;-140.79;100.00;63287.88;4986226;28;20022;-80
2021/08/03 08:09:51;;;;;;;7.90;4.95;;;;;;;-140.79;100.00;63287.88;4986930;28;20023;-82
2021/08/03 08:12:17;;;;;;;9.05;5.20;;;;;;;-140.79;100.00;63287.88;4973679;28;20049;-81
2021/08/03 08:14:51;;;;;;;8.18;5.53;;;;;;;-140.79;100.00;63287.88;4969667;28;20524;-80
2021/08/03 08:17:17;;;;;;;7.55;5.00;;;;;;;-140.79;100.00;63287.88;4969634;28;20057;-81
2021/08/03 08:19:43;;;;;;;7.82;5.50;;;;;;;-140.79;100.00;63287.88;4972502;28;20042;-81
2021/08/03 08:22:08;;;;;;;8.68;5.15;;;;;;;-140.79;100.00;63287.88;4973340;28;20037;-80
2021/08/03 08:24:34;;;;;;;9.18;5.65;;;;;;;-140.79;100.00;63287.88;4953760;28;20022;-81
2021/08/03 08:26:59;;;;;;;10.70;6.30;;;;;;;-140.79;100.00;63287.88;4953150;28;20145;-81
2021/08/03 08:29:25;;;;;;;9.55;5.78;;;;;;;-140.79;100.00;63287.88;4966957;28;20049;-81
2021/08/03 08:31:51;;;;;;;8.18;5.68;;;;;;;-140.79;100.00;63287.88;4968836;28;20034;-81
2021/08/03 08:34:17;;;;;;;10.45;5.75;;;;;;;-140.79;100.00;63287.88;4968808;28;20109;-83
2021/08/03 08:36:42;;;;;;;11.57;5.95;;;;;;;-140.79;100.00;63287.88;4969223;28;20034;-81
2021/08/03 08:39:07;;;;;;;10.70;6.13;;;;;;;-140.79;100.00;63287.88;4967246;28;20027;-80
2021/08/03 08:41:34;;;;;;;10.05;6.15;;;;;;;-140.79;100.00;63287.88;4952196;28;20031;-81
2021/08/03 08:44:00;;;;;;;10.32;6.43;;;;;;;-140.79;100.00;63287.88;4976031;28;20037;-81
2021/08/03 08:46:25;;;;;;;8.48;6.50;;;;;;;-140.79;100.00;63287.88;4952943;28;20035;-81
2021/08/03 08:48:51;;;;;;;9.60;6.32;;;;;;;-140.79;100.00;63287.88;4969844;28;20019;-81
2021/08/03 08:51:16;;;;;;;10.23;6.40;;;;;;;-140.79;100.00;63287.88;4966800;28;20037;-82
2021/08/03 08:53:42;;;;;;;9.05;6.07;;;;;;;-140.79;100.00;63287.88;4970872;28;20157;-80
2021/08/03 08:56:07;;;;;;;8.77;5.70;;;;;;;-140.79;100.00;63287.88;4950936;28;20035;-81
2021/08/03 08:58:33;;;;;;;10.18;6.00;;;;;;;-140.79;100.00;63287.88;4967151;28;20049;-82
2021/08/03 09:00:59;;;;;;;8.48;5.90;;;;;;;-140.79;100.00;63287.88;4975525;28;20061;-81
2021/08/03 09:03:25;;;;;;;8.43;5.90;;;;;;;-140.79;100.00;63287.88;4976861;28;20047;-81
2021/08/03 09:06:00;;;;;;;8.57;5.65;;;;;;;-140.79;100.00;63287.88;4977446;28;20097;-79
2021/08/03 09:08:53;;;;;;;10.40;6.00;;;;;;;-140.79;100.00;63287.88;4972001;28;20034;-76
2021/08/03 09:11:20;;;;;;;8.85;6.10;;;;;;;-140.79;100.00;63287.88;4966048;28;20089;-76
2021/08/03 09:13:58;;;;;;;9.73;5.80;;;;;;;-140.79;100.00;63287.88;4968849;28;20058;-75
2021/08/03 09:16:25;;;;;;;10.10;5.80;;;;;;;-140.79;100.00;63287.88;4965011;28;20026;-77
2021/08/03 09:18:53;;;;;;;11.10;6.30;;;;;;;-140.79;100.00;63287.88;4993050;28;20110;-76
2021/08/03 09:21:22;;;;;;;8.52;5.93;;;;;;;-140.79;100.00;63287.88;4993012;28;20092;-76
2021/08/03 09:23:51;;;;;;;8.85;5.95;;;;;;;-140.79;100.00;63287.88;4971716;28;20613;-75
2021/08/03 09:26:17;;;;;;;9.15;5.93;;;;;;;-140.79;100.00;63287.88;4992797;28;20146;-76
2021/08/03 09:29:03;;;;;;;8.18;5.63;;;;;;;-140.79;100.00;63287.88;4975700;28;20395;-80
2021/08/03 09:31:32;;;;;;;7.70;5.57;;;;;;;-140.79;100.00;63287.88;4982174;28;20093;-76
2021/08/03 09:33:58;;;;;;;7.60;5.88;;;;;;;-140.79;100.00;63287.88;4990738;28;20481;-76
2021/08/03 09:36:52;;;;;;;9.68;5.30;;;;;;;-140.79;100.00;63287.88;4989715;28;20030;-75
2021/08/03 09:39:42;;;;;;;8.63;5.13;;;;;;;-140.79;100.00;63287.88;4990550;28;20145;-76
2021/08/03 09:42:20;;;;;;;7.82;5.45;;;;;;;-140.79;100.00;63287.88;4991339;28;20057;-76
2021/08/03 09:45:00;;;;;;;8.00;5.10;;;;;;;-140.79;100.00;63287.88;4970221;28;20027;-76
2021/08/03 09:47:27;;;;;;;7.35;4.90;;;;;;;-140.79;100.00;63287.88;4987214;28;20032;-76
2021/08/03 09:49:57;;;;;;;7.28;5.07;;;;;;;-140.79;100.00;63287.88;4973307;28;20014;-76
2021/08/03 09:52:24;;;;;;;8.80;5.25;;;;;;;-140.79;100.00;63287.88;4990943;28;20022;-76
2021/08/03 09:54:50;;;;;;;7.88;5.30;;;;;;;-140.79;100.00;63287.88;4990914;28;20566;-76
2021/08/03 09:57:23;;;;;;;8.95;4.90;;;;;;;-140.79;100.00;63287.88;4973167;28;20025;-76
2021/08/03 09:59:49;;;;;;;7.22;4.93;;;;;;;-140.79;100.00;63287.88;4958300;28;20666;-76
2021/08/03 10:02:21;;;;;;;6.55;4.63;;;;;;;-140.79;100.00;63287.88;4984286;28;20034;-75
2021/08/03 10:04:46;;;;;;;5.68;4.70;;;;;;;-140.79;100.00;63287.88;4991580;28;20068;-76
2021/08/03 10:07:15;;;;;;;7.97;4.80;;;;;;;-140.79;100.00;63287.88;4992537;28;20037;-76
2021/08/03 10:09:44;;;;;;;7.07;4.65;;;;;;;-140.79;100.00;63287.88;4992091;28;20026;-76
2021/08/03 10:12:09;;;;;;;7.10;4.45;;;;;;;-140.79;100.00;63287.88;4989840;28;20034;-76
2021/08/03 10:14:35;;;;;;;7.72;4.78;;;;;;;-140.79;100.00;63287.88;4989253;28;20114;-76
2021/08/03 10:17:00;;;;;;;7.03;4.95;;;;;;;-140.79;100.00;63287.88;4989004;28;20555;-76
2021/08/03 10:19:33;;;;;;;7.18;5.10;;;;;;;-140.79;100.00;63287.88;4989160;28;20034;-76
2021/08/03 10:22:24;;;;;;;6.07;4.40;;;;;;;-140.79;100.00;63287.88;4956755;28;20056;-76
2021/08/03 10:24:58;;;;;;;7.13;4.38;;;;;;;-140.79;100.00;63287.88;4977097;28;20042;-76
2021/08/03 10:27:44;;;;;;;7.35;4.20;;;;;;;-140.79;100.00;63287.88;4989341;28;20041;-76
2021/08/03 10:30:30;;;;;;;6.07;4.43;;;;;;;-140.79;100.00;63287.88;4988787;28;20445;-76
2021/08/03 10:32:57;;;;;;;7.68;4.45;;;;;;;-140.79;100.00;63287.88;4974614;28;20034;-75
2021/08/03 10:35:53;;;;;;;6.75;4.28;;;;;;;-140.79;100.00;63287.88;4966543;28;20417;-75
2021/08/03 10:38:20;;;;;;;6.07;4.53;;;;;;;-140.79;100.00;63287.88;4966547;28;20045;-76
2021/08/03 10:40:49;;;;;;;6.68;4.30;;;;;;;-140.79;100.00;63287.88;4971197;28;20055;-76
2021/08/03 10:43:21;;;;;;;6.05;4.60;;;;;;;-140.79;100.00;63287.88;4988521;28;20075;-75
2021/08/03 10:45:47;;;;;;;5.00;3.97;;;;;;;-140.79;100.00;63287.88;4988742;28;20049;-76
2021/08/03 10:48:37;;;;;;;7.22;4.22;;;;;;;-140.79;100.00;63287.88;4988389;28;20037;-76
2021/08/03 10:51:15;;;;;;;5.15;4.05;;;;;;;-140.79;100.00;63287.88;4976102;28;20497;-75
2021/08/03 10:54:08;;;;;;;6.53;4.40;;;;;;;-140.79;100.00;63287.88;4988578;28;20029;-76
2021/08/03 10:57:00;;;;;;;5.80;3.85;;;;;;;-140.79;100.00;63287.88;4988693;28;20022;-76
2021/08/03 10:59:34;;;;;;;5.70;4.43;;;;;;;-140.79;100.00;63287.88;4957679;28;20524;-76
2021/08/03 11:02:03;;;;;;;11.43;5.20;;;;;;;-140.79;100.00;63287.88;4987915;28;20035;-76
2021/08/03 11:04:52;;;;;;;7.03;4.35;;;;;;;-140.79;100.00;63287.88;4976097;28;20497;-79
2021/08/03 11:07:26;;;;;;;6.35;4.22;;;;;;;-140.79;100.00;63287.88;4970052;28;20152;-79
2021/08/03 11:09:59;;;;;;;7.72;4.07;;;;;;;-140.79;100.00;63287.88;4969021;28;20219;-82
2021/08/03 11:12:47;;;;;;;6.93;4.00;;;;;;;-140.79;100.00;63287.88;4973404;28;20018;-84
2021/08/03 11:15:22;;;;;;;5.43;3.90;;;;;;;-140.79;100.00;63287.88;4966928;28;20042;-75